Time;durP1;ratioP1;P1;durP2;ratioP2;P2;SDS_P1;SDS_P2;PMS_P1;PMS_P2;Temp;Humidity;BMP_temperature;BMP_pressure;BME280_temperature;BME280_humidity;BME280_pressure;Samples;Min_cycle;Max_cycle;Signal;HPM_P1;HPM_P2
2022/03/10 00:02:06;;;;;;;25.13;13.53;;;5.90;56.00;;;;;;5051610;28;20017;-81
2022/03/10 00:04:33;;;;;;;28.00;14.10;;;5.90;55.90;;;;;;5035139;28;20029;-81
2022/03/10 00:06:59;;;;;;;23.47;13.57;;;5.90;55.80;;;;;;5018701;28;20025;-80
2022/03/10 00:09:25;;;;;;;24.93;13.17;;;5.90;55.90;;;;;;5018860;28;20025;-81
2022/03/10 00:11:51;;;;;;;22.50;13.57;;;5.90;56.20;;;;;;5053819;28;20025;-81
2022/03/10 00:14:17;;;;;;;29.17;14.67;;;5.80;56.60;;;;;;5055408;28;20067;-81
2022/03/10 00:16:42;;;;;;;25.67;14.03;;;5.80;56.70;;;;;;5038760;28;20029;-81
2022/03/10 00:19:08;;;;;;;25.13;13.70;;;5.70;56.70;;;;;;5055298;28;20079;-81
2022/03/10 00:21:34;;;;;;;26.77;13.50;;;5.80;56.90;;;;;;5055270;28;20104;-80
2022/03/10 00:24:00;;;;;;;25.37;13.70;;;5.60;57.00;;;;;;5038732;28;20059;-81
2022/03/10 00:26:25;;;;;;;22.80;12.47;;;5.70;57.00;;;;;;5056272;28;20032;-80
2022/03/10 00:28:51;;;;;;;24.77;13.27;;;5.70;57.10;;;;;;5055080;28;20087;-80
2022/03/10 00:31:17;;;;;;;25.13;13.57;;;5.60;57.00;;;;;;5056184;28;20017;-80
2022/03/10 00:33:42;;;;;;;25.07;12.87;;;5.60;56.90;;;;;;5038450;28;20082;-80
2022/03/10 00:36:08;;;;;;;23.97;13.27;;;5.60;56.90;;;;;;5055151;28;20123;-80
2022/03/10 00:38:34;;;;;;;27.53;13.30;;;5.50;56.80;;;;;;5038250;28;20484;-80
2022/03/10 00:40:59;;;;;;;24.47;13.33;;;5.70;56.90;;;;;;5021852;28;20475;-80
2022/03/10 00:43:26;;;;;;;25.03;13.37;;;5.50;56.70;;;;;;5038132;28;20155;-80
2022/03/10 00:45:51;;;;;;;24.20;13.23;;;5.60;56.60;;;;;;5054848;28;20036;-79
2022/03/10 00:48:17;;;;;;;26.10;13.73;;;5.50;56.50;;;;;;5054747;28;20017;-80
2022/03/10 00:50:43;;;;;;;21.37;12.23;;;5.50;56.50;;;;;;5038227;28;20029;-80
2022/03/10 00:53:11;;;;;;;22.77;12.80;;;5.40;56.40;;;;;;5021711;28;20048;-80
2022/03/10 00:55:37;;;;;;;23.83;12.00;;;5.40;56.40;;;;;;5054696;28;20108;-80
2022/03/10 00:58:03;;;;;;;28.13;12.43;;;5.40;56.50;;;;;;5038000;28;20048;-80
2022/03/10 01:00:29;;;;;;;25.40;12.37;;;5.40;56.50;;;;;;5054726;28;20029;-80
2022/03/10 01:02:58;;;;;;;23.23;11.83;;;5.40;56.60;;;;;;5038048;28;20056;-80
2022/03/10 01:05:24;;;;;;;24.03;12.67;;;5.50;56.70;;;;;;5021322;28;20115;-80
2022/03/10 01:07:50;;;;;;;23.97;12.23;;;5.40;57.20;;;;;;5055679;28;20100;-80
2022/03/10 01:10:17;;;;;;;25.27;10.93;;;5.40;56.60;;;;;;5054382;28;20381;-80
2022/03/10 01:12:45;;;;;;;22.10;12.03;;;5.30;56.60;;;;;;5037886;28;20039;-79
2022/03/10 01:15:12;;;;;;;23.60;12.40;;;5.30;56.60;;;;;;5038004;28;20025;-79
2022/03/10 01:17:38;;;;;;;22.10;11.80;;;5.30;56.50;;;;;;5054332;28;20049;-79
2022/03/10 01:20:05;;;;;;;23.77;11.43;;;5.30;56.60;;;;;;5054249;28;20067;-80
2022/03/10 01:22:30;;;;;;;24.90;13.07;;;5.30;56.60;;;;;;5053760;28;20112;-80
2022/03/10 01:24:56;;;;;;;23.47;11.43;;;5.30;56.60;;;;;;5055134;28;20104;-80
2022/03/10 01:27:22;;;;;;;20.63;10.47;;;5.40;56.60;;;;;;5055131;28;20067;-80
2022/03/10 01:29:47;;;;;;;22.57;11.43;;;5.30;56.60;;;;;;5053923;28;20025;-80
2022/03/10 01:32:13;;;;;;;22.13;12.30;;;5.30;56.60;;;;;;5020988;28;20537;-80
2022/03/10 01:34:39;;;;;;;21.23;11.53;;;5.30;56.60;;;;;;5054025;28;20033;-81
2022/03/10 01:37:05;;;;;;;22.57;11.83;;;5.30;56.60;;;;;;5037596;28;20029;-80
2022/03/10 01:39:33;;;;;;;21.13;11.40;;;5.30;56.50;;;;;;5054257;28;20025;-80
2022/03/10 01:42:00;;;;;;;23.03;11.97;;;5.20;56.50;;;;;;5054036;28;20036;-79
2022/03/10 01:44:27;;;;;;;23.30;12.03;;;5.30;56.70;;;;;;5037223;28;20029;-80
2022/03/10 01:46:53;;;;;;;23.43;11.83;;;5.30;57.00;;;;;;5053819;28;20170;-80
2022/03/10 01:49:19;;;;;;;23.87;12.33;;;5.20;56.80;;;;;;5020485;28;20041;-80
2022/03/10 01:51:46;;;;;;;23.97;12.93;;;5.20;57.40;;;;;;5053449;28;20496;-79
2022/03/10 01:54:11;;;;;;;22.47;11.27;;;5.20;56.90;;;;;;5053509;28;20083;-80
2022/03/10 01:56:38;;;;;;;22.10;11.83;;;5.20;57.00;;;;;;5053672;28;20033;-79
2022/03/10 01:59:04;;;;;;;22.97;12.47;;;5.20;57.20;;;;;;5053503;28;20052;-80
2022/03/10 02:01:31;;;;;;;22.73;11.77;;;5.20;57.10;;;;;;5053553;28;20065;-80
2022/03/10 02:03:57;;;;;;;23.33;12.20;;;5.10;57.30;;;;;;5036945;28;20476;-79
2022/03/10 02:06:23;;;;;;;23.90;12.30;;;5.10;58.30;;;;;;5037059;28;20033;-80
2022/03/10 02:11:34;;;;;;;;;;;5.20;57.70;;;;;;5054034;28;20039;-80
2022/03/10 02:17:19;;;;;;;23.87;11.73;;;5.00;58.00;;;;;;5054465;28;19995;-80
2022/03/10 02:19:29;;;;;;;26.08;13.02;;;5.00;58.00;;;;;;5034677;28;20120;-80
2022/03/10 02:21:57;;;;;;;22.50;11.00;;;5.00;57.70;;;;;;5033024;28;20057;-79
2022/03/10 02:24:23;;;;;;;23.87;12.77;;;5.00;57.50;;;;;;5033071;28;20032;-80
2022/03/10 02:26:49;;;;;;;23.37;12.23;;;4.90;57.60;;;;;;5049587;28;20452;-80
2022/03/10 02:29:16;;;;;;;22.73;12.13;;;4.90;58.00;;;;;;5033071;28;20036;-80
2022/03/10 02:31:42;;;;;;;21.50;11.73;;;4.90;57.80;;;;;;5032924;28;20033;-80
2022/03/10 02:34:10;;;;;;;24.10;12.53;;;4.90;58.10;;;;;;5048899;28;20448;-80
2022/03/10 02:36:36;;;;;;;25.33;13.20;;;4.80;58.00;;;;;;5032756;28;20120;-80
2022/03/10 02:39:02;;;;;;;23.80;12.03;;;4.80;58.40;;;;;;5032748;28;20199;-80
2022/03/10 02:41:28;;;;;;;22.57;11.47;;;4.70;58.00;;;;;;5049449;28;20544;-80
2022/03/10 02:43:53;;;;;;;22.93;12.73;;;4.80;58.20;;;;;;5032791;28;20029;-79
2022/03/10 02:46:19;;;;;;;22.93;12.17;;;4.80;59.10;;;;;;5032714;28;20048;-81
2022/03/10 02:48:44;;;;;;;22.00;12.93;;;4.80;58.70;;;;;;5032644;28;20470;-80
2022/03/10 02:51:10;;;;;;;25.90;12.43;;;4.90;58.90;;;;;;5032725;28;20061;-80
2022/03/10 02:53:36;;;;;;;21.50;11.93;;;4.70;58.60;;;;;;5032684;28;20044;-80
2022/03/10 02:56:01;;;;;;;25.20;12.73;;;4.70;59.20;;;;;;5032619;28;20049;-80
2022/03/10 02:58:27;;;;;;;26.70;14.07;;;4.70;58.80;;;;;;5032520;28;20040;-80
2022/03/10 03:00:53;;;;;;;22.27;11.97;;;4.70;59.20;;;;;;5032524;28;20075;-80
2022/03/10 03:03:18;;;;;;;22.50;12.83;;;4.70;59.40;;;;;;5049072;28;20076;-81
2022/03/10 03:05:44;;;;;;;23.97;12.40;;;4.80;59.10;;;;;;5033657;28;20108;-81
2022/03/10 03:08:11;;;;;;;25.20;12.70;;;4.60;59.10;;;;;;5032354;28;20075;-81
2022/03/10 03:10:36;;;;;;;24.30;13.00;;;4.60;59.30;;;;;;5048943;28;20032;-81
2022/03/10 03:13:04;;;;;;;21.87;11.83;;;4.60;59.10;;;;;;5033567;28;20025;-81
2022/03/10 03:15:30;;;;;;;23.47;12.67;;;4.60;59.00;;;;;;5048938;28;20022;-80
2022/03/10 03:17:57;;;;;;;22.00;12.60;;;4.60;59.10;;;;;;5032244;28;20025;-80
2022/03/10 03:20:23;;;;;;;25.50;12.57;;;4.50;59.00;;;;;;5032346;28;20025;-80
2022/03/10 03:22:48;;;;;;;22.37;12.10;;;4.50;59.00;;;;;;5048811;28;20014;-80
2022/03/10 03:25:14;;;;;;;21.47;11.80;;;4.50;59.20;;;;;;5032149;28;20080;-80
2022/03/10 03:27:41;;;;;;;22.70;11.67;;;4.50;59.20;;;;;;5032295;28;20048;-80
2022/03/10 03:30:08;;;;;;;22.37;11.63;;;4.50;59.40;;;;;;5032197;28;20379;-80
2022/03/10 03:32:34;;;;;;;23.10;12.13;;;4.50;59.30;;;;;;5034152;28;20029;-80
2022/03/10 03:34:59;;;;;;;22.03;11.40;;;4.50;59.30;;;;;;5032254;28;20029;-79
2022/03/10 03:37:25;;;;;;;21.73;12.00;;;4.40;59.40;;;;;;5032074;28;20485;-79
2022/03/10 03:39:51;;;;;;;21.43;11.47;;;4.40;59.40;;;;;;5033450;28;20036;-79
2022/03/10 03:42:16;;;;;;;22.97;11.50;;;4.40;59.40;;;;;;5031981;28;20026;-79
2022/03/10 03:44:42;;;;;;;22.50;12.07;;;4.40;59.40;;;;;;5032510;28;20033;-80
2022/03/10 03:47:07;;;;;;;23.97;12.13;;;4.30;59.60;;;;;;5035970;28;20025;-80
2022/03/10 03:49:33;;;;;;;24.10;12.93;;;4.30;60.20;;;;;;5035970;28;20060;-80
2022/03/10 03:51:59;;;;;;;24.43;12.60;;;4.40;59.70;;;;;;5035835;28;20045;-80
2022/03/10 03:54:24;;;;;;;23.07;11.93;;;4.40;59.70;;;;;;5036058;28;20052;-80
2022/03/10 03:56:50;;;;;;;23.13;12.43;;;4.30;59.70;;;;;;5035927;28;20026;-81
2022/03/10 03:59:16;;;;;;;24.77;12.83;;;4.30;59.70;;;;;;5035840;28;20083;-80
2022/03/10 04:01:42;;;;;;;23.23;12.20;;;4.30;60.40;;;;;;5052431;28;20056;-81
2022/03/10 04:04:07;;;;;;;24.33;12.43;;;4.30;59.80;;;;;;5035805;28;20084;-81
2022/03/10 04:06:33;;;;;;;24.33;13.23;;;4.30;60.00;;;;;;5036910;28;20021;-80
2022/03/10 04:08:59;;;;;;;26.60;13.50;;;4.30;60.40;;;;;;5052272;28;20462;-80
2022/03/10 04:11:25;;;;;;;25.97;14.50;;;4.20;59.90;;;;;;5052211;28;20401;-80
2022/03/10 04:13:51;;;;;;;32.90;15.53;;;4.20;60.00;;;;;;5035592;28;20079;-80
2022/03/10 04:16:17;;;;;;;28.53;14.97;;;4.20;61.00;;;;;;5052122;28;20049;-80
2022/03/10 04:18:43;;;;;;;32.37;14.97;;;4.10;60.10;;;;;;5036762;28;20034;-80
2022/03/10 04:21:09;;;;;;;28.00;13.87;;;4.20;60.50;;;;;;5035435;28;20041;-81
2022/03/10 04:23:34;;;;;;;28.57;14.83;;;4.20;60.70;;;;;;5035312;28;20397;-80
2022/03/10 04:26:00;;;;;;;29.57;15.53;;;4.20;61.20;;;;;;5035320;28;20437;-81
2022/03/10 04:28:26;;;;;;;35.20;15.57;;;4.10;60.80;;;;;;5052020;28;20030;-80
2022/03/10 04:30:52;;;;;;;28.47;14.40;;;4.10;61.60;;;;;;5035087;28;20026;-80
2022/03/10 04:33:18;;;;;;;27.63;14.77;;;4.10;61.00;;;;;;5035399;28;20083;-80
2022/03/10 04:35:44;;;;;;;27.97;14.60;;;4.10;61.50;;;;;;5036394;28;20026;-80
2022/03/10 04:38:10;;;;;;;27.93;13.07;;;4.10;61.10;;;;;;5051700;28;20112;-80
2022/03/10 04:40:37;;;;;;;24.23;13.37;;;4.10;61.00;;;;;;5036318;28;20021;-80
2022/03/10 04:43:03;;;;;;;27.83;13.37;;;4.10;61.10;;;;;;5035211;28;20026;-80
2022/03/10 04:45:29;;;;;;;24.73;13.13;;;4.00;61.00;;;;;;5035913;28;20021;-77
2022/03/10 04:47:55;;;;;;;25.07;12.23;;;4.10;61.00;;;;;;5035081;28;20120;-80
2022/03/10 04:50:20;;;;;;;27.10;13.37;;;4.00;61.00;;;;;;5034879;28;20029;-80
2022/03/10 04:52:46;;;;;;;25.37;12.80;;;4.00;61.10;;;;;;5034565;28;20042;-80
2022/03/10 04:55:13;;;;;;;24.53;12.90;;;4.00;61.70;;;;;;5051383;28;20529;-79
2022/03/10 04:57:39;;;;;;;24.73;11.77;;;4.00;61.20;;;;;;5050692;28;20037;-80
2022/03/10 05:00:10;;;;;;;26.03;12.43;;;3.90;61.20;;;;;;5051322;28;20021;-80
2022/03/10 05:02:40;;;;;;;23.67;12.63;;;4.00;61.40;;;;;;5051213;28;20017;-80
2022/03/10 05:05:10;;;;;;;24.33;12.57;;;3.90;61.40;;;;;;5034537;28;20025;-80
2022/03/10 05:07:35;;;;;;;22.60;12.13;;;3.90;61.40;;;;;;5034373;28;20037;-80
2022/03/10 05:10:01;;;;;;;23.07;11.77;;;3.90;61.30;;;;;;5017925;28;20045;-80
2022/03/10 05:12:27;;;;;;;20.37;11.43;;;3.90;61.30;;;;;;5028986;28;20025;-80
2022/03/10 05:14:53;;;;;;;23.23;12.40;;;3.90;61.30;;;;;;5052388;28;20017;-80
2022/03/10 05:17:18;;;;;;;24.73;12.60;;;3.90;61.30;;;;;;5045412;28;20036;-80
2022/03/10 05:19:44;;;;;;;25.37;12.37;;;3.90;61.40;;;;;;5033236;28;20034;-79
2022/03/10 05:22:10;;;;;;;26.80;12.67;;;3.90;61.40;;;;;;5030862;28;20112;-81
2022/03/10 05:24:35;;;;;;;24.27;12.50;;;4.00;61.40;;;;;;5021131;28;20053;-79
2022/03/10 05:27:01;;;;;;;22.93;12.27;;;3.90;61.30;;;;;;5045042;28;20034;-80
2022/03/10 05:29:27;;;;;;;23.43;11.87;;;3.80;61.30;;;;;;5034046;28;20021;-79
2022/03/10 05:31:53;;;;;;;26.50;12.47;;;3.90;61.50;;;;;;5033984;28;20014;-79
2022/03/10 05:34:19;;;;;;;27.93;12.80;;;3.80;61.50;;;;;;5017595;28;20032;-79
2022/03/10 05:36:45;;;;;;;25.57;13.37;;;3.80;61.60;;;;;;5029768;28;20177;-80
2022/03/10 05:39:11;;;;;;;26.60;12.80;;;3.70;61.60;;;;;;5035671;28;20036;-80
2022/03/10 05:41:37;;;;;;;25.07;12.53;;;3.80;61.70;;;;;;5046886;28;20429;-81
2022/03/10 05:44:02;;;;;;;24.77;12.20;;;3.80;61.70;;;;;;5037206;28;20110;-80
2022/03/10 05:46:28;;;;;;;25.80;13.37;;;3.80;61.60;;;;;;5036951;28;20401;-80
2022/03/10 05:48:54;;;;;;;28.77;14.03;;;3.90;61.90;;;;;;5037274;28;20017;-80
2022/03/10 05:51:20;;;;;;;24.57;12.73;;;3.70;61.60;;;;;;5053168;28;20461;-80
2022/03/10 05:53:49;;;;;;;28.60;14.50;;;3.70;61.70;;;;;;5020527;28;20035;-81
2022/03/10 05:56:15;;;;;;;23.93;13.03;;;3.70;61.80;;;;;;5053588;28;20025;-80
2022/03/10 05:58:40;;;;;;;26.67;13.33;;;3.70;61.80;;;;;;5053672;28;20366;-81
2022/03/10 06:01:06;;;;;;;25.63;13.27;;;3.60;61.70;;;;;;5041175;28;20087;-81
2022/03/10 06:03:32;;;;;;;24.00;12.73;;;3.60;61.70;;;;;;5017336;28;20032;-81
2022/03/10 06:05:58;;;;;;;27.60;13.70;;;3.60;61.90;;;;;;5033377;28;20025;-80
2022/03/10 06:08:24;;;;;;;29.30;13.27;;;3.60;62.00;;;;;;5015853;28;20025;-80
2022/03/10 06:10:49;;;;;;;29.87;13.87;;;3.60;62.20;;;;;;5035811;28;20036;-78
2022/03/10 06:13:15;;;;;;;23.40;12.40;;;3.60;62.20;;;;;;5036496;28;20115;-78
2022/03/10 06:15:40;;;;;;;25.77;12.83;;;3.50;62.20;;;;;;5053110;28;20037;-78
2022/03/10 06:18:08;;;;;;;26.90;13.33;;;3.70;62.40;;;;;;5036525;28;20035;-77
2022/03/10 06:20:34;;;;;;;25.43;12.37;;;3.50;62.50;;;;;;5052976;28;20484;-78
2022/03/10 06:23:00;;;;;;;28.10;13.77;;;3.50;62.30;;;;;;5052984;28;20033;-78
2022/03/10 06:25:26;;;;;;;25.77;12.57;;;3.50;62.40;;;;;;5052822;28;20044;-77
2022/03/10 06:27:52;;;;;;;25.73;12.50;;;3.60;62.50;;;;;;5036263;28;20409;-79
2022/03/10 06:30:17;;;;;;;32.30;13.40;;;3.50;62.40;;;;;;5037166;28;20492;-78
2022/03/10 06:32:43;;;;;;;26.97;12.93;;;3.60;62.70;;;;;;5025903;28;20092;-78
2022/03/10 06:35:08;;;;;;;22.63;11.93;;;3.60;62.50;;;;;;5033006;28;20541;-77
2022/03/10 06:37:34;;;;;;;24.33;11.17;;;3.50;62.50;;;;;;5037782;28;20025;-78
2022/03/10 06:40:02;;;;;;;23.23;12.50;;;3.60;62.50;;;;;;5016129;28;20482;-78
2022/03/10 06:42:30;;;;;;;24.90;12.77;;;3.60;62.50;;;;;;5032725;28;20099;-78
2022/03/10 06:44:55;;;;;;;25.40;11.97;;;3.60;62.50;;;;;;5016014;28;20394;-79
2022/03/10 06:47:21;;;;;;;25.87;12.43;;;3.60;62.50;;;;;;5034158;28;20061;-78
2022/03/10 06:49:47;;;;;;;28.80;13.70;;;3.60;62.50;;;;;;5016262;28;20018;-78
2022/03/10 06:52:12;;;;;;;23.97;11.87;;;3.70;62.50;;;;;;5039271;28;20048;-78
2022/03/10 06:54:39;;;;;;;24.07;11.87;;;3.70;62.50;;;;;;5019487;28;20021;-78
2022/03/10 06:57:06;;;;;;;24.83;12.87;;;3.70;62.50;;;;;;5052508;28;20043;-78
2022/03/10 06:59:32;;;;;;;23.03;11.97;;;3.70;62.50;;;;;;5035538;28;20029;-79
2022/03/10 07:01:57;;;;;;;25.50;11.90;;;3.80;62.60;;;;;;5035756;28;20036;-78
2022/03/10 07:04:23;;;;;;;23.93;11.23;;;3.80;62.40;;;;;;5035750;28;20121;-79
2022/03/10 07:06:49;;;;;;;25.93;12.43;;;3.90;62.40;;;;;;5052429;28;20078;-78
2022/03/10 07:09:15;;;;;;;20.83;11.87;;;3.90;62.40;;;;;;5036072;28;20481;-78
2022/03/10 07:11:40;;;;;;;27.93;12.57;;;3.90;62.40;;;;;;5051968;28;20021;-78
2022/03/10 07:14:06;;;;;;;24.30;12.37;;;3.90;62.40;;;;;;5052272;28;20083;-78
2022/03/10 07:16:32;;;;;;;28.77;13.43;;;4.00;62.50;;;;;;5051859;28;20044;-78
2022/03/10 07:18:58;;;;;;;22.00;11.50;;;4.00;62.30;;;;;;5051444;28;20116;-79
2022/03/10 07:21:23;;;;;;;27.90;13.10;;;4.20;62.30;;;;;;5035019;28;20056;-78
2022/03/10 07:23:50;;;;;;;25.50;11.60;;;4.20;62.30;;;;;;5053068;28;20029;-79
2022/03/10 07:26:16;;;;;;;25.37;12.27;;;4.20;62.20;;;;;;5051545;28;20025;-79
2022/03/10 07:28:42;;;;;;;27.60;13.33;;;4.30;62.10;;;;;;5051474;28;20482;-79
2022/03/10 07:31:09;;;;;;;23.27;12.73;;;4.30;62.00;;;;;;5035153;28;20112;-79
2022/03/10 07:33:35;;;;;;;25.47;12.83;;;4.40;61.90;;;;;;5053109;28;20021;-78
2022/03/10 07:36:01;;;;;;;22.87;11.97;;;4.40;61.80;;;;;;5051937;28;20025;-78
2022/03/10 07:38:27;;;;;;;22.67;11.03;;;4.50;61.80;;;;;;5051953;28;20393;-78
2022/03/10 07:40:54;;;;;;;23.63;12.57;;;4.50;61.60;;;;;;5035251;28;20025;-78
2022/03/10 07:43:19;;;;;;;22.80;12.43;;;4.60;61.50;;;;;;5035425;28;20447;-78
2022/03/10 07:45:50;;;;;;;23.17;12.73;;;4.60;61.30;;;;;;5051883;28;20037;-78
2022/03/10 07:48:17;;;;;;;21.27;11.03;;;4.70;61.20;;;;;;5052148;28;20465;-78
2022/03/10 07:50:43;;;;;;;24.17;12.00;;;4.80;61.10;;;;;;5052609;28;20389;-78
2022/03/10 07:53:09;;;;;;;22.77;11.90;;;4.80;60.90;;;;;;5051594;28;20114;-79
2022/03/10 07:55:35;;;;;;;22.70;11.93;;;4.90;60.70;;;;;;5018462;28;20037;-78
2022/03/10 07:58:01;;;;;;;23.10;12.57;;;5.00;60.70;;;;;;5051798;28;20417;-79
2022/03/10 08:00:27;;;;;;;24.30;12.50;;;5.10;60.60;;;;;;5051688;28;20035;-79
2022/03/10 08:02:53;;;;;;;23.33;11.33;;;5.10;60.50;;;;;;5051857;28;20052;-79
2022/03/10 08:05:18;;;;;;;22.73;13.23;;;5.20;60.40;;;;;;5035153;28;20495;-79
2022/03/10 08:07:44;;;;;;;22.60;11.57;;;5.20;60.20;;;;;;5034742;28;20040;-79
2022/03/10 08:10:10;;;;;;;25.63;13.13;;;5.30;60.10;;;;;;5034800;28;20112;-79
2022/03/10 08:12:36;;;;;;;24.33;12.63;;;5.30;60.00;;;;;;5034852;28;20032;-79
2022/03/10 08:15:02;;;;;;;23.97;12.60;;;5.40;60.00;;;;;;5051479;28;20052;-79
2022/03/10 08:17:28;;;;;;;24.40;11.43;;;5.50;59.80;;;;;;5051310;28;20059;-78
2022/03/10 08:19:55;;;;;;;25.33;12.10;;;5.50;59.60;;;;;;5051488;28;20025;-78
2022/03/10 08:22:21;;;;;;;23.60;13.03;;;5.60;59.50;;;;;;5051649;28;20032;-78
2022/03/10 08:24:48;;;;;;;24.50;12.63;;;5.70;59.40;;;;;;5051380;28;20033;-78
2022/03/10 08:27:17;;;;;;;25.93;13.47;;;5.80;59.30;;;;;;5051338;28;20120;-78
2022/03/10 08:29:44;;;;;;;25.70;13.13;;;5.80;59.20;;;;;;5051457;28;20025;-78
2022/03/10 08:32:10;;;;;;;24.50;13.03;;;5.90;59.10;;;;;;5053984;28;20104;-78
2022/03/10 08:34:36;;;;;;;26.70;13.97;;;6.00;59.00;;;;;;5054971;28;20418;-78
2022/03/10 08:37:02;;;;;;;24.37;12.83;;;6.10;59.00;;;;;;5055037;28;20029;-78
2022/03/10 08:39:28;;;;;;;25.33;14.17;;;6.20;59.00;;;;;;5021815;28;20029;-78
2022/03/10 08:41:54;;;;;;;26.90;14.23;;;6.20;58.90;;;;;;5038678;28;20025;-79
2022/03/10 08:44:21;;;;;;;26.17;13.90;;;6.30;58.80;;;;;;5021962;28;20063;-79
2022/03/10 08:46:48;;;;;;;26.23;13.40;;;6.40;58.70;;;;;;5055995;28;20032;-79
2022/03/10 08:49:14;;;;;;;27.90;13.57;;;6.50;59.30;;;;;;5038124;28;20033;-79
2022/03/10 08:51:40;;;;;;;24.77;13.63;;;6.60;58.60;;;;;;5055654;28;20119;-78
2022/03/10 08:54:06;;;;;;;25.73;13.83;;;6.60;58.60;;;;;;5055750;28;20109;-78
2022/03/10 08:56:32;;;;;;;22.97;14.43;;;6.70;58.50;;;;;;5055869;28;20075;-78
2022/03/10 08:58:58;;;;;;;24.43;13.60;;;6.80;58.50;;;;;;5055198;28;20033;-78
2022/03/10 09:01:23;;;;;;;26.53;14.57;;;6.90;58.40;;;;;;5037886;28;20036;-78
2022/03/10 09:03:49;;;;;;;25.10;14.10;;;7.00;58.30;;;;;;5055741;28;20032;-78
2022/03/10 09:06:16;;;;;;;29.07;14.97;;;7.10;58.20;;;;;;5037801;28;20040;-78
2022/03/10 09:08:44;;;;;;;27.77;15.10;;;7.20;58.20;;;;;;5054405;28;20078;-78
2022/03/10 09:11:09;;;;;;;28.47;14.20;;;7.30;58.10;;;;;;5055592;28;20021;-79
2022/03/10 09:13:35;;;;;;;26.97;15.10;;;7.30;58.00;;;;;;5037981;28;20504;-78
2022/03/10 09:16:01;;;;;;;29.13;14.77;;;7.50;58.00;;;;;;5055368;28;20100;-78
2022/03/10 09:18:26;;;;;;;24.10;13.83;;;7.60;58.60;;;;;;5053785;28;20392;-79
2022/03/10 09:20:52;;;;;;;26.47;16.17;;;7.70;57.90;;;;;;5055873;28;20599;-78
2022/03/10 09:23:18;;;;;;;25.07;14.60;;;7.80;57.80;;;;;;5037615;28;20025;-78
2022/03/10 09:25:43;;;;;;;25.07;13.47;;;7.90;57.70;;;;;;5021340;28;20033;-78
2022/03/10 09:28:10;;;;;;;26.00;14.80;;;8.00;57.70;;;;;;5037487;28;20389;-78
2022/03/10 09:30:36;;;;;;;24.17;14.43;;;8.10;57.60;;;;;;5053892;28;20017;-78
2022/03/10 09:33:02;;;;;;;24.77;14.07;;;8.20;57.40;;;;;;5054584;28;20029;-78
2022/03/10 09:35:28;;;;;;;27.77;14.77;;;8.40;57.40;;;;;;5053897;28;20044;-78
2022/03/10 09:37:54;;;;;;;24.80;14.57;;;8.50;57.20;;;;;;5054316;28;20448;-78
2022/03/10 09:40:20;;;;;;;25.83;14.03;;;8.60;57.10;;;;;;5055195;28;20044;-78
2022/03/10 09:42:48;;;;;;;34.03;14.63;;;8.80;57.00;;;;;;5053694;28;20401;-78
2022/03/10 09:45:16;;;;;;;24.63;13.93;;;8.80;56.70;;;;;;5055051;28;20035;-78
2022/03/10 09:47:45;;;;;;;24.60;14.27;;;8.90;56.60;;;;;;5054943;28;20032;-79
2022/03/10 09:50:16;;;;;;;25.00;14.43;;;9.00;57.20;;;;;;5055298;28;20087;-78
2022/03/10 09:52:43;;;;;;;25.37;13.40;;;9.20;56.40;;;;;;5054705;28;20049;-78
2022/03/10 09:55:10;;;;;;;24.87;13.97;;;9.20;56.10;;;;;;5054870;28;20032;-79
2022/03/10 09:57:40;;;;;;;30.97;14.83;;;9.40;55.90;;;;;;5037091;28;20025;-78
2022/03/10 10:00:08;;;;;;;26.60;13.90;;;9.50;55.80;;;;;;5053337;28;20025;-78
2022/03/10 10:02:34;;;;;;;28.37;15.60;;;9.70;55.80;;;;;;5053302;28;20021;-79
2022/03/10 10:05:00;;;;;;;25.67;14.80;;;9.90;55.30;;;;;;5053391;28;20033;-79
2022/03/10 10:07:27;;;;;;;25.17;15.63;;;10.00;55.00;;;;;;5053318;28;20059;-78
2022/03/10 10:09:55;;;;;;;26.43;15.03;;;10.40;54.90;;;;;;5053059;28;20071;-79
2022/03/10 10:12:29;;;;;;;23.77;14.80;;;10.70;54.70;;;;;;5053076;28;20049;-79
2022/03/10 10:14:56;;;;;;;24.25;14.15;;;11.20;54.30;;;;;;5053009;28;20021;-79
2022/03/10 10:17:28;;;;;;;26.05;14.73;;;11.70;54.20;;;;;;5036806;28;20060;-79
2022/03/10 10:20:00;;;;;;;24.30;14.00;;;12.30;54.30;;;;;;5054381;28;20420;-79
2022/03/10 10:22:27;;;;;;;25.52;13.10;;;13.20;54.20;;;;;;5054271;28;20099;-79
2022/03/10 10:25:02;;;;;;;20.80;12.50;;;14.00;54.20;;;;;;5053143;28;20108;-79
2022/03/10 10:27:32;;;;;;;16.58;11.27;;;15.00;53.90;;;;;;5052825;28;20422;-79
2022/03/10 10:30:00;;;;;;;19.15;11.63;;;15.90;53.70;;;;;;5036596;28;20481;-80
2022/03/10 10:32:34;;;;;;;18.75;12.05;;;16.90;53.00;;;;;;5048393;28;20021;-80
2022/03/10 10:35:05;;;;;;;18.30;11.70;;;17.80;51.00;;;;;;5045391;28;20022;-80
2022/03/10 10:37:32;;;;;;;16.10;12.05;;;18.60;50.20;;;;;;5049779;28;20040;-80
2022/03/10 10:39:58;;;;;;;20.00;11.85;;;19.50;48.90;;;;;;5049797;28;20109;-78
2022/03/10 10:42:31;;;;;;;16.35;10.90;;;20.40;47.60;;;;;;5034405;28;20036;-79
2022/03/10 10:45:01;;;;;;;17.55;11.35;;;21.10;45.30;;;;;;5034007;28;20029;-80
2022/03/10 10:47:28;;;;;;;17.02;11.80;;;21.80;44.70;;;;;;5032687;28;20147;-81
2022/03/10 10:50:00;;;;;;;16.83;12.05;;;22.40;43.20;;;;;;5033863;28;20579;-81
2022/03/10 10:52:40;;;;;;;14.88;11.07;;;23.00;41.70;;;;;;5033207;28;20070;-78
2022/03/10 10:55:11;;;;;;;16.33;12.40;;;23.60;40.00;;;;;;5032383;28;20032;-79
2022/03/10 10:57:38;;;;;;;17.00;12.65;;;24.10;39.00;;;;;;5032550;28;20112;-79
2022/03/10 11:00:08;;;;;;;14.90;11.35;;;24.60;38.10;;;;;;5015997;28;20494;-79
2022/03/10 11:02:36;;;;;;;16.08;11.52;;;25.00;37.30;;;;;;5032335;28;20028;-79
2022/03/10 11:05:03;;;;;;;16.15;12.05;;;25.40;36.40;;;;;;5032394;28;20377;-79
2022/03/10 11:07:31;;;;;;;18.77;11.55;;;25.80;35.60;;;;;;5032262;28;20029;-79
2022/03/10 11:09:57;;;;;;;15.50;11.75;;;26.00;35.10;;;;;;5033538;28;20030;-79
2022/03/10 11:12:23;;;;;;;18.30;13.32;;;26.30;34.30;;;;;;5032563;28;20037;-79
2022/03/10 11:14:49;;;;;;;14.15;11.70;;;26.60;33.90;;;;;;5016040;28;20497;-79
2022/03/10 11:17:17;;;;;;;20.92;12.02;;;26.90;33.40;;;;;;5033421;28;20456;-79
2022/03/10 11:19:49;;;;;;;16.00;11.30;;;27.20;32.90;;;;;;5016066;28;20052;-79
2022/03/10 11:22:33;;;;;;;15.63;12.15;;;27.50;32.50;;;;;;5033990;28;20473;-80
2022/03/10 11:25:06;;;;;;;16.48;12.13;;;27.80;31.70;;;;;;5032091;28;20036;-79
2022/03/10 11:27:55;;;;;;;16.25;12.63;;;28.10;31.10;;;;;;5032055;28;20037;-79
2022/03/10 11:30:28;;;;;;;15.50;13.20;;;28.30;30.10;;;;;;5032439;28;20428;-79
2022/03/10 11:33:12;;;;;;;17.58;13.73;;;28.50;30.00;;;;;;5015929;28;20462;-80
2022/03/10 11:35:46;;;;;;;15.95;11.82;;;28.60;29.70;;;;;;5033572;28;20513;-80
2022/03/10 11:38:13;;;;;;;17.08;11.85;;;28.70;29.80;;;;;;5033279;28;20025;-80
2022/03/10 11:40:47;;;;;;;18.33;12.32;;;28.90;29.70;;;;;;5032441;28;20041;-80
2022/03/10 11:43:33;;;;;;;14.95;12.55;;;29.00;29.50;;;;;;5032237;28;20051;-79
2022/03/10 11:46:16;;;;;;;16.35;13.68;;;29.30;29.10;;;;;;5015110;28;20036;-80
2022/03/10 11:48:42;;;;;;;19.90;12.63;;;29.40;28.60;;;;;;5032823;28;20393;-80
2022/03/10 11:51:10;;;;;;;14.70;12.05;;;29.40;28.60;;;;;;5015372;28;20029;-80
2022/03/10 11:54:03;;;;;;;19.17;14.90;;;29.40;28.50;;;;;;5031723;28;20054;-80
2022/03/10 11:56:52;;;;;;;17.35;12.13;;;29.40;28.20;;;;;;5032965;28;20026;-80
2022/03/10 11:59:31;;;;;;;14.32;11.10;;;29.40;28.30;;;;;;5031093;28;20037;-80
2022/03/10 12:01:57;;;;;;;15.23;12.07;;;29.40;28.40;;;;;;5032012;28;20037;-81
2022/03/10 12:04:40;;;;;;;16.73;12.77;;;29.60;28.40;;;;;;5015404;28;20033;-80
2022/03/10 12:07:09;;;;;;;;;;;29.70;28.20;;;;;;5034741;28;20040;-80
2022/03/10 12:09:38;;;;;;;14.38;11.20;;;29.80;28.30;;;;;;5052056;28;19949;-81
2022/03/10 12:12:25;;;;;;;16.98;11.10;;;29.90;28.20;;;;;;5019434;28;20037;-81
2022/03/10 12:14:55;;;;;;;15.73;11.63;;;30.00;27.80;;;;;;5037013;28;20108;-80
2022/03/10 12:17:46;;;;;;;15.30;12.35;;;30.10;28.00;;;;;;5035750;28;20053;-80
2022/03/10 12:20:23;;;;;;;14.35;11.40;;;30.40;27.70;;;;;;5036625;28;20079;-80
2022/03/10 12:23:09;;;;;;;14.25;10.77;;;30.50;27.50;;;;;;5035663;28;20108;-81
2022/03/10 12:25:37;;;;;;;14.38;10.73;;;30.60;27.40;;;;;;5036534;28;20492;-80
2022/03/10 12:28:03;;;;;;;14.73;11.10;;;30.80;27.60;;;;;;5035313;28;20021;-82
2022/03/10 12:30:30;;;;;;;13.70;11.13;;;30.80;27.30;;;;;;5036498;28;20439;-80
2022/03/10 12:32:58;;;;;;;15.63;11.48;;;31.00;27.00;;;;;;5035419;28;20029;-80
2022/03/10 12:35:28;;;;;;;16.90;12.27;;;31.00;26.80;;;;;;5035180;28;20021;-80
2022/03/10 12:37:54;;;;;;;15.30;11.48;;;31.00;26.80;;;;;;5035424;28;20154;-80
2022/03/10 12:40:22;;;;;;;14.02;11.10;;;31.10;27.20;;;;;;5035925;28;20158;-79
2022/03/10 12:42:48;;;;;;;14.02;11.60;;;31.10;26.80;;;;;;5036325;28;20030;-80